Historyczne dane pomiarowe

Dodano dane terminowe – wersja testowa.

Dane z okresu 1951-2019

Wersja bazy: 1.34 [2019-03-16, lista zmian], aktualizacja planowana na 2019-04-15

Dane meteo z obszaru Polski uzyskane na podstawie danych udostępnionych przez Instytut Meteorologii i Gospodarki Wodnej – Państwowy Instytut Badawczy.

 

Wybierz Datę:    

       

TemperaturaWilgotnośćZachmurzenieWiatrCiśnienieWidzialnośćZjawiska
 Data    tng td wb rh cc ccl cl cm ch dir g1 g2 mslp ppp      
1994-07-31 00:00:00 16.4--- 13.0 14.481wxwx0wx--1014.5 974.3 0.0---wx
1994-07-31 01:00:00 16.0--- 13.7 14.686wxwx0wx--1014.6 974.3----wx
1994-07-31 02:00:00 15.2--- 13.5 14.290wxwx0wx--1014.6 974.2----wx
1994-07-31 03:00:00 14.8--- 12.9 13.789wxwx0wx--1014.7 974.2----wx
1994-07-31 04:00:00 14.4--- 12.9 13.591wxwxwx0wx--1015.0 974.5----wx
1994-07-31 05:00:00 15.6--- 13.6 14.488wxwxwx0wx--1015.0 974.6----wx
1994-07-31 06:00:00 18.9--- 14.5 16.276wxwxwx0wx--1014.2 974.3 0.0---wx
1994-07-31 07:00:00 24.8--- 17.4 19.963wxwxwx0wx--1013.2 974.1----wx
1994-07-31 08:00:00 31.1--- 14.1 20.236wxwxwx4wx--1012.3 974.0----wx
1994-07-31 09:00:00 32.4--- 13.4 20.332wxwxwx6wx--1012.1 974.0----wx
1994-07-31 10:00:00 33.9--- 14.3 21.231wxwxwxwx5wx--1011.8 973.9----wx
1994-07-31 11:00:00 34.4--- 14.4 21.430wxwxwxwx4wx--1011.4 973.6----wx
1994-07-31 12:00:00 34.6--- 13.9 21.229wxwxwxwx5wx--1011.2 973.4 0.0---wx
1994-07-31 13:00:00 34.8--- 14.0 21.329wxwxwxwxwx4wx--1010.6 972.9----wx
1994-07-31 14:00:00 34.8--- 13.7 21.228wxwxwxwxwx6wx--1010.3 972.6----wx
1994-07-31 15:00:00 34.7--- 12.5 20.626wxwxwxwxwx4wx--1010.0 972.3----wx
1994-07-31 16:00:00 34.3--- 13.2 20.828wxwxwxwx4wx--1010.0 972.2----wx
1994-07-31 17:00:00 32.8--- 12.9 20.230wxwxwx3wx--1010.0 972.0----wx
1994-07-31 18:00:00 30.2--- 15.3 20.541wxwx1wx--1010.2 971.9 0.0---wx
1994-07-31 19:00:00 25.1--- 16.9 19.760wxwx2wx--1011.2 972.2----wx
1994-07-31 20:00:00 22.3--- 15.2 17.864wxwx0wx--1011.9 972.5----wx
1994-07-31 21:00:00 20.6--- 15.0 17.170wxwx0wx--1012.3 972.7----wx
1994-07-31 22:00:00 19.4--- 14.6 16.474wxwx0wx--1012.8 973.0----wx
1994-07-31 23:00:00 18.2--- 15.0 16.282wxwx0wx--1012.5 972.6----wx

 

Źródłem pochodzenia danych jest Instytut Meteorologii i Gospodarki Wodnej – Państwowy Instytut Badawczy. Dane Instytutu Meteorologii i Gospodarki Wodnej – Państwowego Instytutu Badawczego zostały przetworzone.

Dane źródłowe można odnaleźć na stronie https://dane.imgw.pl